Time;durP1;ratioP1;P1;durP2;ratioP2;P2;SDS_P1;SDS_P2;PMS_P1;PMS_P2;Temp;Humidity;BMP_temperature;BMP_pressure;BME280_temperature;BME280_humidity;BME280_pressure;Samples;Min_cycle;Max_cycle;Signal;HPM_P1;HPM_P2
2022/04/11 00:00:08;;;;;;;11.22;6.90;;;;;;;20.18;53.98;98813.44;1878977;76;25697;-87
2022/04/11 00:02:34;;;;;;;;;;;;;;;20.17;53.98;98820.98;1881916;76;25557;-86
2022/04/11 00:05:00;;;;;;;9.03;5.80;;;;;;;20.15;54.03;98813.59;1878991;76;27966;-86
2022/04/11 00:07:26;;;;;;;10.55;6.20;;;;;;;20.13;54.04;98816.53;1878749;76;25980;-86
2022/04/11 00:09:52;;;;;;;11.25;6.55;;;;;;;20.12;54.07;98821.89;1878947;76;25632;-86
2022/04/11 00:12:18;;;;;;;10.58;6.40;;;;;;;20.11;54.06;98820.27;1879038;76;26160;-85
2022/04/11 00:14:44;;;;;;;11.60;6.40;;;;;;;20.09;54.12;98821.25;1879231;76;25601;-88
2022/04/11 00:17:10;;;;;;;8.70;5.75;;;;;;;20.10;54.11;98827.02;1879027;76;28159;-86
2022/04/11 00:19:36;;;;;;;11.53;6.75;;;;;;;20.07;54.09;98825.80;1878839;76;25873;-86
2022/04/11 00:22:03;;;;;;;10.90;6.47;;;;;;;20.07;54.11;98829.97;1878904;76;25387;-87
2022/04/11 00:24:29;;;;;;;9.68;6.00;;;;;;;20.06;54.11;98833.33;1878954;76;25565;-87
2022/04/11 00:26:55;;;;;;;10.72;6.33;;;;;;;20.06;54.17;98831.12;1879099;76;25585;-87
2022/04/11 00:29:22;;;;;;;11.35;6.20;;;;;;;20.03;54.12;98824.92;1879209;76;27418;-89
2022/04/11 00:31:48;;;;;;;11.78;6.58;;;;;;;20.03;54.16;98824.92;1878924;76;25860;-89
2022/04/11 00:34:14;;;;;;;9.75;6.30;;;;;;;20.01;54.17;98832.83;1879036;76;25602;-92
2022/04/11 00:36:40;;;;;;;10.50;6.47;;;;;;;20.00;54.17;98829.23;1879007;76;25636;-89
2022/04/11 00:39:06;;;;;;;10.10;6.33;;;;;;;19.99;54.19;98829.60;1879093;76;25620;-91
2022/04/11 00:41:32;;;;;;;10.05;6.40;;;;;;;20.00;54.25;98834.01;1878895;76;28228;-89
2022/04/11 00:43:58;;;;;;;9.90;6.35;;;;;;;20.01;54.21;98835.03;1878796;76;25466;-89
2022/04/11 00:46:24;;;;;;;10.23;6.10;;;;;;;19.99;54.13;98827.63;1879068;76;25697;-85
2022/04/11 00:48:50;;;;;;;9.08;6.05;;;;;;;19.98;54.19;98828.82;1878903;76;25456;-86
2022/04/11 00:51:22;;;;;;;10.93;6.20;;;;;;;19.97;54.18;98829.20;1879146;76;25664;-86
2022/04/11 00:53:51;;;;;;;9.65;6.33;;;;;;;19.97;54.19;98832.76;1879022;76;27394;-86
2022/04/11 00:56:19;;;;;;;9.10;6.10;;;;;;;19.98;54.19;98833.57;1879023;76;25693;-87
2022/04/11 00:58:46;;;;;;;9.10;5.67;;;;;;;19.95;54.20;98830.95;1878943;76;25710;-87
2022/04/11 01:01:15;;;;;;;9.85;5.97;;;;;;;19.96;54.23;98830.34;1878930;76;25624;-86
2022/04/11 01:03:42;;;;;;;8.38;5.70;;;;;;;19.96;54.20;98836.73;1878543;76;25665;-90
2022/04/11 01:06:08;;;;;;;10.15;5.92;;;;;;;19.96;54.15;98837.30;1880079;76;28249;-86
2022/04/11 01:08:34;;;;;;;9.55;5.95;;;;;;;19.94;54.15;98828.75;1881570;76;25641;-85
2022/04/11 01:11:02;;;;;;;10.60;6.22;;;;;;;19.93;54.16;98832.72;1881836;76;25695;-86
2022/04/11 01:13:30;;;;;;;9.53;6.12;;;;;;;19.93;54.15;98834.69;1881693;76;25534;-86
2022/04/11 01:16:00;;;;;;;8.80;5.58;;;;;;;19.93;54.18;98838.86;1881724;76;25434;-86
2022/04/11 01:18:27;;;;;;;9.18;5.97;;;;;;;19.93;54.17;98838.28;1881914;76;28421;-86
2022/04/11 01:20:54;;;;;;;9.75;6.10;;;;;;;19.94;54.15;98842.66;1881653;76;25554;-85
2022/04/11 01:23:21;;;;;;;9.55;5.58;;;;;;;19.96;54.12;98839.51;1881948;76;25546;-86
2022/04/11 01:25:55;;;;;;;9.93;6.33;;;;;;;19.94;54.13;98835.70;1881924;76;25632;-86
2022/04/11 01:28:22;;;;;;;10.32;5.95;;;;;;;19.97;54.11;98834.15;1881945;76;25604;-87
2022/04/11 01:30:54;;;;;;;8.75;5.60;;;;;;;20.00;54.03;98838.97;1881835;76;28251;-90
2022/04/11 01:33:25;;;;;;;9.83;6.08;;;;;;;20.04;53.99;98844.63;1881808;76;25640;-91
2022/04/11 01:35:51;;;;;;;8.83;5.62;;;;;;;20.05;53.92;98847.61;1881759;76;25687;-87
2022/04/11 01:38:18;;;;;;;8.78;5.67;;;;;;;20.05;53.92;98847.03;1881851;76;25566;-89
2022/04/11 01:40:56;;;;;;;8.50;5.72;;;;;;;20.03;53.91;98851.34;1882033;76;25633;-90
2022/04/11 01:43:24;;;;;;;9.58;5.72;;;;;;;20.04;53.89;98854.36;1881905;76;27364;-90
2022/04/11 01:45:52;;;;;;;7.75;5.47;;;;;;;20.03;53.86;98862.47;1881799;76;26016;-88
2022/04/11 01:48:18;;;;;;;8.40;5.47;;;;;;;20.04;53.84;98862.70;1881916;76;25788;-89
2022/04/11 01:50:44;;;;;;;9.30;5.70;;;;;;;20.03;53.83;98864.67;1881936;76;25640;-89
2022/04/11 01:53:14;;;;;;;7.95;5.95;;;;;;;20.03;53.83;98861.89;1881989;76;25680;-89
2022/04/11 01:55:41;;;;;;;7.80;5.42;;;;;;;20.03;53.79;98863.28;1881958;76;28263;-89
2022/04/11 01:58:09;;;;;;;9.08;5.80;;;;;;;20.03;53.76;98868.84;1881763;76;25581;-90
2022/04/11 02:00:38;;;;;;;8.00;5.70;;;;;;;20.03;53.77;98868.03;1882073;76;25432;-91
2022/04/11 02:03:07;;;;;;;9.50;5.87;;;;;;;20.04;53.77;98871.05;1882062;76;25672;-91
2022/04/11 02:05:35;;;;;;;10.00;5.80;;;;;;;20.04;53.70;98871.83;1881762;76;25673;-90
2022/04/11 02:08:03;;;;;;;9.65;5.80;;;;;;;20.04;53.70;98869.66;1879245;76;27380;-91
2022/04/11 02:10:29;;;;;;;9.30;5.58;;;;;;;20.03;53.68;98872.20;1878673;76;25660;-86
2022/04/11 02:12:56;;;;;;;8.15;5.75;;;;;;;20.02;53.68;98877.56;1878981;76;25713;-88
2022/04/11 02:15:22;;;;;;;8.88;5.85;;;;;;;20.03;53.70;98874.98;1878824;76;26204;-86
2022/04/11 02:17:50;;;;;;;9.10;5.50;;;;;;;20.04;53.66;98882.17;1879112;76;25597;-87
2022/04/11 02:20:17;;;;;;;7.90;5.10;;;;;;;20.01;53.64;98875.94;1878720;76;28403;-87
2022/04/11 02:22:57;;;;;;;9.25;5.80;;;;;;;20.00;53.67;98881.30;1879064;76;25708;-87
2022/04/11 02:25:26;;;;;;;8.83;5.33;;;;;;;19.99;53.64;98877.70;1879184;76;25368;-87
2022/04/11 02:27:55;;;;;;;7.75;5.17;;;;;;;19.98;53.65;98881.66;1878220;76;25425;-86
2022/04/11 02:30:24;;;;;;;9.33;5.60;;;;;;;19.99;53.64;98885.23;1878737;76;25515;-85
2022/04/11 02:32:52;;;;;;;7.60;5.10;;;;;;;19.97;53.65;98880.04;1878762;76;27380;-87
2022/04/11 02:35:19;;;;;;;8.53;5.67;;;;;;;19.97;53.58;98882.82;1879202;76;25708;-86
2022/04/11 02:37:46;;;;;;;9.95;5.70;;;;;;;19.96;53.61;98885.97;1878749;76;25521;-86
2022/04/11 02:40:14;;;;;;;7.55;5.45;;;;;;;19.95;53.63;98885.19;1879015;76;25661;-87
2022/04/11 02:42:45;;;;;;;8.20;5.05;;;;;;;19.94;53.60;98886.34;1879297;76;25650;-86
2022/04/11 02:45:14;;;;;;;8.40;5.50;;;;;;;19.93;53.61;98893.91;1879020;76;27337;-87
2022/04/11 02:47:40;;;;;;;9.50;5.83;;;;;;;19.94;53.59;98893.30;1878807;76;25735;-86
2022/04/11 02:50:08;;;;;;;9.03;5.58;;;;;;;19.94;53.60;98893.30;1879127;76;25687;-87
2022/04/11 02:52:34;;;;;;;8.58;5.47;;;;;;;19.93;53.62;98887.53;1879077;76;25600;-86
2022/04/11 02:55:01;;;;;;;8.88;5.53;;;;;;;19.92;53.61;98885.33;1879072;76;25578;-85
2022/04/11 02:57:29;;;;;;;8.00;5.33;;;;;;;19.90;53.58;98891.05;1879198;76;28002;-91
2022/04/11 02:59:56;;;;;;;8.70;5.30;;;;;;;19.91;53.57;98891.26;1878610;76;25668;-91
2022/04/11 03:02:23;;;;;;;7.92;5.28;;;;;;;19.91;53.55;98888.48;1878627;76;25560;-91
2022/04/11 03:04:49;;;;;;;10.28;5.85;;;;;;;19.90;53.54;98891.87;1878934;76;25573;-90
2022/04/11 03:07:15;;;;;;;8.23;5.47;;;;;;;19.88;53.57;98887.83;1878849;76;25660;-91
2022/04/11 03:09:41;;;;;;;8.55;5.60;;;;;;;19.87;53.57;98900.14;1878961;76;27362;-91
2022/04/11 03:12:09;;;;;;;8.15;5.15;;;;;;;19.86;53.58;98902.11;1878610;76;25715;-91
2022/04/11 03:14:35;;;;;;;7.03;5.15;;;;;;;19.86;53.58;98902.11;1878958;76;25387;-91
2022/04/11 03:17:02;;;;;;;9.58;5.85;;;;;;;19.87;53.57;98907.09;1879070;76;25422;-90
2022/04/11 03:19:28;;;;;;;8.28;5.67;;;;;;;19.89;53.52;98907.53;1879054;76;25673;-91
2022/04/11 03:21:54;;;;;;;8.23;5.12;;;;;;;19.87;53.52;98900.14;1878686;76;27461;-86
2022/04/11 03:24:20;;;;;;;8.18;5.03;;;;;;;19.85;53.52;98901.89;1879121;76;25666;-91
2022/04/11 03:26:46;;;;;;;7.80;5.20;;;;;;;19.87;53.50;98904.31;1879142;76;25766;-89
2022/04/11 03:29:12;;;;;;;9.18;5.78;;;;;;;19.85;53.51;98908.85;1879075;76;25660;-91
2022/04/11 03:31:38;;;;;;;8.43;5.25;;;;;;;19.84;53.51;98906.44;1879037;76;25434;-92
2022/04/11 03:34:04;;;;;;;8.33;5.78;;;;;;;19.81;53.51;98910.16;1879123;76;27420;-86
2022/04/11 03:36:30;;;;;;;8.88;5.50;;;;;;;19.81;53.49;98912.95;1878859;76;25675;-86
2022/04/11 03:38:56;;;;;;;7.75;5.28;;;;;;;19.81;53.55;98913.55;1878829;76;25688;-86
2022/04/11 03:41:23;;;;;;;7.83;5.53;;;;;;;19.81;53.50;98912.16;1879093;76;25628;-86
2022/04/11 03:43:49;;;;;;;8.55;5.22;;;;;;;19.82;53.50;98917.93;1878786;76;25644;-86
2022/04/11 03:46:15;;;;;;;8.18;5.58;;;;;;;19.80;53.50;98923.86;1879072;76;28256;-86
2022/04/11 03:48:41;;;;;;;8.18;5.58;;;;;;;19.81;53.50;98928.84;1878864;76;25402;-86
2022/04/11 03:51:08;;;;;;;7.95;5.37;;;;;;;19.83;53.47;98925.70;1879110;76;25542;-87
2022/04/11 03:53:34;;;;;;;8.20;5.25;;;;;;;19.83;53.41;98925.09;1878865;76;26306;-86
2022/04/11 03:56:00;;;;;;;7.17;4.90;;;;;;;19.81;53.43;98922.68;1879070;76;25640;-86
2022/04/11 03:58:26;;;;;;;8.63;5.35;;;;;;;19.79;53.47;98932.00;1879021;76;28409;-86
2022/04/11 04:00:52;;;;;;;8.18;5.10;;;;;;;19.80;53.42;98926.64;1878894;76;25586;-85
2022/04/11 04:03:18;;;;;;;8.15;5.30;;;;;;;19.79;53.42;98929.80;1879098;76;25507;-85
2022/04/11 04:05:46;;;;;;;10.45;5.55;;;;;;;19.80;53.42;98931.39;1878819;76;26184;-86
2022/04/11 04:08:17;;;;;;;6.78;4.80;;;;;;;19.78;53.43;98929.59;1878514;76;25670;-86
2022/04/11 04:10:42;;;;;;;8.43;4.90;;;;;;;19.80;53.38;98934.17;1878481;76;26058;-85
2022/04/11 04:13:08;;;;;;;7.97;5.20;;;;;;;19.79;53.40;98940.34;1878600;76;25617;-86
2022/04/11 04:15:34;;;;;;;7.58;5.12;;;;;;;19.79;53.40;98948.68;1879091;76;25689;-85
2022/04/11 04:18:00;;;;;;;7.67;5.22;;;;;;;19.77;53.36;98953.80;1878977;76;26236;-85
2022/04/11 04:20:26;;;;;;;8.60;5.08;;;;;;;19.77;53.37;98953.80;1878921;76;25656;-87
2022/04/11 04:22:57;;;;;;;7.60;4.90;;;;;;;19.77;53.37;98953.80;1879032;76;27579;-86
2022/04/11 04:25:23;;;;;;;9.15;5.08;;;;;;;19.78;53.35;98958.78;1878887;76;26037;-87
2022/04/11 04:27:50;;;;;;;7.85;5.00;;;;;;;19.78;53.30;98956.78;1878945;76;25168;-86
2022/04/11 04:30:16;;;;;;;8.95;5.42;;;;;;;19.78;53.31;98959.56;1879034;76;25586;-86
2022/04/11 04:32:43;;;;;;;8.33;5.05;;;;;;;19.79;53.29;98960.38;1878631;76;25638;-86
2022/04/11 04:35:10;;;;;;;7.25;4.97;;;;;;;19.78;53.29;98965.13;1878861;76;27409;-85
2022/04/11 04:37:36;;;;;;;8.73;5.50;;;;;;;19.78;53.23;98965.73;1878998;76;25698;-86
2022/04/11 04:40:04;;;;;;;6.28;4.80;;;;;;;19.79;53.25;98969.53;1879001;76;25389;-87
2022/04/11 04:42:30;;;;;;;7.15;4.70;;;;;;;19.78;53.25;98969.30;1878602;76;25724;-89
2022/04/11 04:44:56;;;;;;;7.55;5.00;;;;;;;19.78;53.26;98973.47;1878960;76;25721;-90
2022/04/11 04:47:25;;;;;;;7.33;4.85;;;;;;;19.78;53.25;98972.69;1878944;76;27350;-89
2022/04/11 04:49:50;;;;;;;7.67;5.25;;;;;;;19.78;53.23;98972.69;1878356;76;25622;-90
2022/04/11 04:52:16;;;;;;;7.37;5.00;;;;;;;19.77;53.20;98978.00;1879147;76;25662;-91
2022/04/11 04:54:42;;;;;;;7.92;5.22;;;;;;;19.75;53.25;98982.55;1878978;76;25760;-91
2022/04/11 04:57:09;;;;;;;7.50;5.00;;;;;;;19.75;53.25;98981.77;1879351;76;25681;-86
2022/04/11 04:59:35;;;;;;;7.10;4.80;;;;;;;19.75;53.25;98987.32;1879193;76;28375;-85
2022/04/11 05:02:01;;;;;;;7.78;4.85;;;;;;;19.77;53.22;98991.91;1878984;76;25708;-86
2022/04/11 05:04:27;;;;;;;6.58;4.67;;;;;;;19.78;53.20;98990.16;1879156;76;25653;-86
2022/04/11 05:06:53;;;;;;;9.05;5.17;;;;;;;19.77;53.21;98991.91;1879042;75;25700;-86
2022/04/11 05:09:19;;;;;;;8.50;5.03;;;;;;;19.77;53.22;98994.11;1879288;76;25652;-87
2022/04/11 05:11:46;;;;;;;6.83;4.72;;;;;;;19.77;53.21;98995.50;1879249;76;27418;-86
2022/04/11 05:14:12;;;;;;;6.70;4.47;;;;;;;19.78;53.21;98996.31;1879143;76;25420;-87
2022/04/11 05:16:38;;;;;;;7.85;5.03;;;;;;;19.76;53.20;98997.26;1879100;76;25638;-87
2022/04/11 05:19:05;;;;;;;7.50;5.00;;;;;;;19.75;53.21;98997.84;1879190;76;26126;-86
2022/04/11 05:21:31;;;;;;;6.83;5.00;;;;;;;19.76;53.20;99003.64;1879276;76;25678;-87
2022/04/11 05:23:57;;;;;;;8.08;5.20;;;;;;;19.74;53.17;99012.92;1879167;76;28145;-88
2022/04/11 05:26:24;;;;;;;9.05;5.25;;;;;;;19.71;53.24;99013.66;1879020;76;25606;-86
2022/04/11 05:28:50;;;;;;;6.35;4.67;;;;;;;19.71;53.29;99019.82;1874708;76;26395;-91
2022/04/11 05:31:18;;;;;;;8.45;5.12;;;;;;;19.68;53.38;99011.61;1869181;76;25627;-90
2022/04/11 05:33:45;;;;;;;8.00;5.03;;;;;;;19.68;53.38;99015.78;1852695;76;25195;-89
2022/04/11 05:36:12;;;;;;;7.28;4.70;;;;;;;19.72;53.36;99017.25;1851954;77;27242;-89
2022/04/11 05:38:38;;;;;;;6.95;4.70;;;;;;;19.73;53.33;99020.23;1851780;77;25636;-88
2022/04/11 05:41:05;;;;;;;7.78;4.70;;;;;;;19.74;53.32;99020.45;1852027;77;25671;-90
2022/04/11 05:43:31;;;;;;;6.12;4.60;;;;;;;19.74;53.32;99012.92;1864622;76;25391;-91
2022/04/11 05:45:59;;;;;;;6.67;4.50;;;;;;;19.76;53.29;99017.54;1867178;76;25777;-90
2022/04/11 05:48:26;;;;;;;6.80;4.95;;;;;;;19.76;53.27;99020.89;1864694;76;27408;-89
2022/04/11 05:50:53;;;;;;;7.10;4.50;;;;;;;19.76;53.24;99030.05;1864886;76;25683;-89
2022/04/11 05:53:20;;;;;;;7.78;5.05;;;;;;;19.77;53.25;99030.84;1864064;76;25435;-92
2022/04/11 05:55:46;;;;;;;7.17;4.60;;;;;;;19.77;53.23;99028.05;1867869;76;25713;-91
2022/04/11 05:58:12;;;;;;;6.35;4.42;;;;;;;19.75;53.25;99029.81;1855487;76;25651;-89
2022/04/11 06:00:38;;;;;;;7.03;4.72;;;;;;;19.75;53.25;99029.81;1852590;77;28213;-90
2022/04/11 06:03:05;;;;;;;6.15;4.55;;;;;;;19.75;53.22;99029.81;1853968;77;26173;-90
2022/04/11 06:05:32;;;;;;;7.97;5.00;;;;;;;19.69;53.31;99025.75;1854802;77;25662;-90
2022/04/11 06:07:58;;;;;;;7.03;4.60;;;;;;;19.67;53.37;99023.33;1852491;77;25637;-89
2022/04/11 06:10:25;;;;;;;6.80;4.97;;;;;;;19.65;53.38;99025.66;1851736;77;25641;-89
2022/04/11 06:12:51;;;;;;;7.05;4.85;;;;;;;19.67;53.31;99020.55;1851485;77;27370;-89
2022/04/11 06:15:18;;;;;;;7.92;5.33;;;;;;;19.68;53.31;99024.12;1851455;77;25691;-90
2022/04/11 06:17:45;;;;;;;8.80;4.80;;;;;;;19.71;53.27;99019.82;1851315;77;25653;-90
2022/04/11 06:20:12;;;;;;;7.62;4.90;;;;;;;19.71;53.25;99025.37;1851556;77;25580;-85
2022/04/11 06:22:42;;;;;;;9.28;5.87;;;;;;;19.71;53.27;99016.44;1851152;77;25659;-85
2022/04/11 06:25:09;;;;;;;8.70;4.87;;;;;;;19.75;52.94;99016.52;1851399;77;27472;-85
2022/04/11 06:27:37;;;;;;;10.63;5.47;;;;;;;19.76;52.83;99021.71;1851542;77;25661;-85
2022/04/11 06:30:06;;;;;;;10.63;5.50;;;;;;;19.81;52.86;99020.61;1851118;77;25667;-87
2022/04/11 06:32:34;;;;;;;12.78;5.80;;;;;;;19.83;52.84;99019.63;1851526;77;25532;-86
2022/04/11 06:35:01;;;;;;;13.83;5.75;;;;;;;19.86;52.93;99020.89;1851183;77;25679;-88
2022/04/11 06:37:28;;;;;;;11.22;6.15;;;;;;;19.90;52.73;99023.97;1851653;77;27612;-85
2022/04/11 06:39:55;;;;;;;14.60;5.92;;;;;;;19.93;52.58;99018.24;1851440;77;25705;-86
2022/04/11 06:42:22;;;;;;;9.55;5.33;;;;;;;19.94;52.54;99019.27;1851423;77;25616;-88
2022/04/11 06:44:49;;;;;;;11.43;5.65;;;;;;;19.97;52.48;99021.11;1851572;77;25700;-85
2022/04/11 06:47:15;;;;;;;12.47;6.10;;;;;;;19.99;52.37;99022.91;1851491;77;25566;-85
2022/04/11 06:49:41;;;;;;;14.80;6.08;;;;;;;19.99;52.37;99026.51;1851717;77;27342;-85
2022/04/11 06:52:08;;;;;;;10.68;5.35;;;;;;;20.02;52.33;99031.36;1851392;77;25555;-85
2022/04/11 06:54:35;;;;;;;11.40;5.53;;;;;;;20.02;52.34;99029.97;1851415;77;25671;-85
2022/04/11 06:57:01;;;;;;;10.75;5.75;;;;;;;20.05;52.37;99032.59;1851597;77;26144;-86
2022/04/11 06:59:27;;;;;;;12.53;5.55;;;;;;;20.08;52.35;99031.05;1851593;77;25608;-85
2022/04/11 07:01:54;;;;;;;12.25;5.75;;;;;;;20.12;52.28;99029.16;1851349;77;27347;-86
2022/04/11 07:04:21;;;;;;;11.75;5.87;;;;;;;20.12;52.24;99027.77;1851431;77;25643;-83
2022/04/11 07:06:48;;;;;;;11.25;5.87;;;;;;;20.12;52.26;99034.11;1851654;77;25635;-85
2022/04/11 07:09:15;;;;;;;10.88;5.95;;;;;;;20.14;52.31;99034.55;1852853;77;25567;-88
2022/04/11 07:11:42;;;;;;;10.48;5.55;;;;;;;20.16;52.31;99033.61;1853260;77;25685;-89
2022/04/11 07:14:08;;;;;;;12.33;5.58;;;;;;;20.18;52.25;99033.24;1854681;77;27350;-90
2022/04/11 07:16:35;;;;;;;13.03;5.65;;;;;;;20.17;52.22;99031.61;1854875;77;25723;-91
2022/04/11 07:19:01;;;;;;;12.68;5.67;;;;;;;20.16;51.90;99030.83;1854792;77;25586;-90
2022/04/11 07:21:28;;;;;;;11.12;5.72;;;;;;;20.14;51.85;99036.52;1854788;77;25677;-90
2022/04/11 07:23:54;;;;;;;13.53;5.85;;;;;;;20.12;52.02;99038.28;1854731;77;25651;-88
2022/04/11 07:26:20;;;;;;;11.90;5.30;;;;;;;20.13;52.05;99034.92;1854683;77;27426;-90
2022/04/11 07:28:50;;;;;;;9.53;5.65;;;;;;;20.13;52.07;99033.53;1854688;77;25726;-90
2022/04/11 07:31:16;;;;;;;12.03;5.73;;;;;;;20.12;52.13;99039.67;1854861;77;25650;-89
2022/04/11 07:33:43;;;;;;;8.98;5.03;;;;;;;20.12;52.12;99034.11;1854772;77;25445;-89
2022/04/11 07:36:10;;;;;;;9.13;5.35;;;;;;;20.12;52.12;99032.72;1854775;77;25413;-89
2022/04/11 07:38:36;;;;;;;9.00;5.37;;;;;;;20.13;52.15;99044.09;1854808;77;28277;-91
2022/04/11 07:41:02;;;;;;;9.23;5.25;;;;;;;20.13;52.20;99038.52;1854740;77;25672;-90
2022/04/11 07:43:29;;;;;;;12.05;5.40;;;;;;;20.14;52.18;99042.09;1854810;77;25688;-86
2022/04/11 07:45:55;;;;;;;10.03;4.97;;;;;;;20.15;52.21;99045.89;1854818;77;25589;-86
2022/04/11 07:48:21;;;;;;;12.33;5.53;;;;;;;20.15;52.23;99042.33;1854907;77;25646;-85
2022/04/11 07:50:48;;;;;;;9.88;5.50;;;;;;;20.14;52.22;99051.83;1854628;77;27348;-86
2022/04/11 07:53:14;;;;;;;11.05;5.05;;;;;;;20.13;52.23;99048.26;1854851;77;25678;-87
2022/04/11 07:55:41;;;;;;;8.83;5.12;;;;;;;20.12;52.21;99053.59;1854872;77;25738;-86
2022/04/11 07:58:07;;;;;;;9.05;4.92;;;;;;;20.12;52.24;99056.97;1853964;77;25642;-85
2022/04/11 08:00:34;;;;;;;10.30;5.17;;;;;;;20.11;52.29;99051.98;1854506;77;25412;-90
2022/04/11 08:03:00;;;;;;;9.88;5.30;;;;;;;20.11;52.29;99058.94;1854604;77;27363;-91
2022/04/11 08:05:27;;;;;;;9.23;4.80;;;;;;;20.11;52.30;99066.47;1854548;77;25591;-86
2022/04/11 08:07:53;;;;;;;7.55;4.72;;;;;;;20.11;52.33;99061.72;1850117;77;25571;-86
2022/04/11 08:10:25;;;;;;;10.90;5.10;;;;;;;20.12;52.46;99063.32;1851405;77;26186;-85
2022/04/11 08:12:57;;;;;;;9.90;4.78;;;;;;;20.12;52.50;99059.15;1850178;77;25394;-86
2022/04/11 08:15:27;;;;;;;10.15;4.83;;;;;;;20.11;52.40;99060.91;1851393;77;27624;-87
2022/04/11 08:17:56;;;;;;;9.13;4.50;;;;;;;20.08;52.42;99062.45;1851304;77;25392;-85
2022/04/11 08:20:25;;;;;;;8.95;4.97;;;;;;;20.07;52.24;99058.08;1851301;77;25591;-85
2022/04/11 08:22:52;;;;;;;7.83;4.72;;;;;;;20.08;52.15;99058.28;1851438;77;25754;-88
2022/04/11 08:25:19;;;;;;;9.25;4.58;;;;;;;20.07;52.35;99059.47;1851448;77;25378;-86
2022/04/11 08:27:46;;;;;;;7.90;4.62;;;;;;;20.08;52.33;99066.62;1851413;77;27394;-86
2022/04/11 08:30:13;;;;;;;7.92;4.40;;;;;;;20.09;52.16;99064.66;1851348;77;25737;-87
2022/04/11 08:32:47;;;;;;;10.93;4.72;;;;;;;20.10;52.11;99060.70;1851187;77;25450;-86
2022/04/11 08:35:15;;;;;;;9.58;4.40;;;;;;;20.13;52.08;99061.35;1851302;77;25437;-85
2022/04/11 08:37:42;;;;;;;8.53;4.50;;;;;;;20.15;52.04;99058.41;1851682;77;25411;-84
2022/04/11 08:40:12;;;;;;;8.23;4.35;;;;;;;20.20;52.06;99057.91;1851652;77;27371;-87
2022/04/11 08:42:42;;;;;;;7.95;4.65;;;;;;;20.24;52.00;99053.20;1851956;77;25627;-85
2022/04/11 08:45:13;;;;;;;10.72;4.33;;;;;;;20.24;51.79;99051.81;1851387;77;25390;-86
2022/04/11 08:47:39;;;;;;;;;;;;;;;20.26;51.70;99053.66;1853728;77;25379;-85
2022/04/11 08:50:07;;;;;;;8.63;4.17;;;;;;;20.26;51.53;99053.05;1851619;77;25606;-89
2022/04/11 08:52:35;;;;;;;8.70;4.37;;;;;;;20.22;51.59;99050.80;1851644;77;27394;-89
2022/04/11 08:55:06;;;;;;;7.83;4.25;;;;;;;20.21;51.59;99051.16;1851424;77;25668;-89
2022/04/11 08:57:33;;;;;;;7.40;4.00;;;;;;;20.20;51.53;99055.91;1851638;77;25738;-88
2022/04/11 09:00:15;;;;;;;8.48;4.10;;;;;;;20.22;51.49;99061.11;1848662;77;26580;-88
2022/04/11 09:02:44;;;;;;;9.00;4.15;;;;;;;20.21;51.58;99057.55;1851893;77;25718;-90
2022/04/11 09:05:12;;;;;;;9.43;3.87;;;;;;;20.20;51.49;99060.70;1851492;77;27366;-86
2022/04/11 09:07:54;;;;;;;8.33;4.15;;;;;;;20.18;51.59;99057.67;1851427;77;25702;-86
2022/04/11 09:10:36;;;;;;;8.23;4.72;;;;;;;20.17;51.63;99058.05;1851545;77;25757;-85
2022/04/11 09:13:03;;;;;;;;;;;;;;;20.16;51.73;99050.88;1850262;77;25670;-85
2022/04/11 09:15:40;;;;;;;6.95;4.15;;;;;;;20.21;51.58;99049.77;1851590;77;25599;-85
2022/04/11 09:18:07;;;;;;;6.10;3.62;;;;;;;20.22;51.59;99045.81;1851561;77;27400;-86
2022/04/11 09:20:33;;;;;;;9.65;3.95;;;;;;;20.21;51.62;99040.03;1851500;77;25816;-88
2022/04/11 09:23:00;;;;;;;7.58;3.72;;;;;;;20.21;51.58;99045.02;1851521;77;25692;-89
2022/04/11 09:25:32;;;;;;;7.65;4.05;;;;;;;20.21;51.64;99040.84;1851589;77;25842;-84
2022/04/11 09:28:09;;;;;;;7.97;3.80;;;;;;;20.25;51.61;99036.72;1851401;77;25419;-88
2022/04/11 09:30:38;;;;;;;6.50;3.42;;;;;;;20.25;51.58;99031.97;1851558;77;27275;-89
2022/04/11 09:33:07;;;;;;;5.70;3.45;;;;;;;20.27;51.48;99031.59;1851482;77;25762;-85
2022/04/11 09:35:37;;;;;;;7.40;3.27;;;;;;;20.30;51.36;99040.59;1851639;77;26368;-88
2022/04/11 09:38:17;;;;;;;6.35;3.52;;;;;;;20.28;51.36;99042.36;1851635;77;26414;-86
2022/04/11 09:40:52;;;;;;;8.80;3.55;;;;;;;20.27;51.40;99044.91;1850650;77;25735;-85
2022/04/11 09:43:31;;;;;;;7.95;3.35;;;;;;;20.26;51.40;99046.70;1851474;77;27351;-84
2022/04/11 09:46:00;;;;;;;10.63;3.85;;;;;;;20.27;51.44;99045.52;1850762;77;25865;-87
2022/04/11 09:48:32;;;;;;;6.15;3.67;;;;;;;20.26;51.56;99048.09;1851606;77;25615;-85
2022/04/11 09:51:00;;;;;;;9.03;3.87;;;;;;;20.27;51.49;99044.12;1851450;77;26570;-85
2022/04/11 09:53:35;;;;;;;5.65;3.33;;;;;;;20.27;51.52;99038.55;1851205;77;25817;-88
2022/04/11 09:56:08;;;;;;;7.47;3.90;;;;;;;20.27;51.55;99037.16;1851579;77;27412;-87
2022/04/11 09:58:38;;;;;;;5.22;3.52;;;;;;;20.30;51.46;99035.03;1851102;77;25718;-90
2022/04/11 10:01:06;;;;;;;;;;;;;;;20.31;51.36;99035.24;1854220;77;25706;-90
2022/04/11 10:03:32;;;;;;;7.53;3.65;;;;;;;20.29;51.39;99047.32;1851511;77;25686;-89
2022/04/11 10:05:59;;;;;;;8.18;3.67;;;;;;;20.25;51.42;99037.53;1851469;77;25448;-89
2022/04/11 10:08:27;;;;;;;7.00;3.52;;;;;;;20.23;51.52;99038.48;1851598;77;28042;-91
2022/04/11 10:10:55;;;;;;;6.33;3.72;;;;;;;20.22;51.52;99038.84;1851245;77;25761;-89
2022/04/11 10:13:22;;;;;;;8.53;3.60;;;;;;;20.20;51.58;99035.66;1851221;77;25658;-89
2022/04/11 10:15:49;;;;;;;4.40;3.30;;;;;;;20.18;51.60;99043.77;1851494;77;25824;-88
2022/04/11 10:18:21;;;;;;;5.72;3.33;;;;;;;20.18;51.63;99033.24;1851531;77;25685;-90
2022/04/11 10:20:53;;;;;;;5.72;3.33;;;;;;;20.18;51.58;99036.80;1850201;77;27365;-89
2022/04/11 10:23:50;;;;;;;5.85;3.40;;;;;;;20.18;51.53;99034.63;1848613;77;25714;-89
2022/04/11 10:26:18;;;;;;;6.45;3.25;;;;;;;20.18;51.53;99032.63;1851434;77;25452;-88
2022/04/11 10:28:55;;;;;;;5.92;3.25;;;;;;;20.17;51.47;99030.22;1851455;77;25693;-85
2022/04/11 10:31:19;;;;;;;4.95;3.50;;;;;;;20.16;51.49;99023.88;1849834;77;25657;-85
2022/04/11 10:33:52;;;;;;;7.55;3.60;;;;;;;20.19;51.46;99030.66;1851547;77;27480;-87
2022/04/11 10:36:39;;;;;;;4.70;2.90;;;;;;;20.20;51.42;99025.91;1851536;77;25571;-84
2022/04/11 10:39:21;;;;;;;3.87;2.87;;;;;;;20.20;51.36;99023.92;1851414;77;25563;-84
2022/04/11 10:42:06;;;;;;;4.67;3.10;;;;;;;20.21;51.37;99020.56;1851125;77;26642;-88
2022/04/11 10:44:44;;;;;;;5.75;3.37;;;;;;;20.22;51.37;99023.55;1851301;77;25631;-86
2022/04/11 10:47:18;;;;;;;6.05;3.10;;;;;;;20.18;51.39;99020.11;1851386;77;27440;-87
2022/04/11 10:49:57;;;;;;;5.95;3.27;;;;;;;20.16;51.38;99016.91;1851579;77;25732;-86
2022/04/11 10:52:39;;;;;;;6.12;3.20;;;;;;;20.19;51.31;99013.97;1851109;77;25686;-85
2022/04/11 10:55:17;;;;;;;4.75;2.92;;;;;;;20.20;51.38;99020.34;1851099;77;25746;-88
2022/04/11 10:57:55;;;;;;;4.83;2.80;;;;;;;20.21;51.28;99014.98;1851169;77;25443;-88
2022/04/11 11:00:22;;;;;;;3.47;2.72;;;;;;;20.20;51.30;99014.17;1848587;77;25866;-86
2022/04/11 11:05:28;;;;;;;5.10;2.90;;;;;;;20.18;51.31;99014.55;1851578;77;25662;-85
2022/04/11 11:08:15;;;;;;;5.87;3.10;;;;;;;20.19;51.33;99009.80;1851393;77;25673;-86
2022/04/11 11:10:58;;;;;;;6.30;2.87;;;;;;;20.20;51.32;99007.22;1853741;77;25631;-87
2022/04/11 11:13:43;;;;;;;4.67;2.75;;;;;;;20.21;51.34;98995.52;1854427;77;28349;-85
2022/04/11 11:16:15;;;;;;;4.25;2.72;;;;;;;20.18;51.34;98993.68;1852735;77;25595;-88
2022/04/11 11:18:53;;;;;;;5.83;2.77;;;;;;;20.15;51.47;98997.20;1852316;77;25567;-85
2022/04/11 11:21:47;;;;;;;7.55;2.70;;;;;;;20.14;51.44;99005.92;1854789;77;26682;-85
2022/04/11 11:24:15;;;;;;;5.10;2.62;;;;;;;20.13;51.51;99004.32;1854374;77;25655;-85
2022/04/11 11:26:57;;;;;;;6.00;3.30;;;;;;;20.13;51.43;99000.14;1854762;77;27244;-88
2022/04/11 11:29:33;;;;;;;5.05;2.90;;;;;;;20.10;51.54;98995.33;1854295;77;25948;-87
2022/04/11 11:32:03;;;;;;;3.95;2.75;;;;;;;20.06;51.57;98991.89;1852450;77;25210;-88
2022/04/11 11:34:33;;;;;;;6.85;3.10;;;;;;;20.08;51.59;98987.34;1854702;77;26375;-88
2022/04/11 11:37:10;;;;;;;5.40;2.80;;;;;;;20.09;51.59;98992.33;1854435;77;25754;-86
2022/04/11 11:39:40;;;;;;;6.03;3.40;;;;;;;20.06;51.62;98986.33;1854094;77;28268;-87